Time;durP1;ratioP1;P1;durP2;ratioP2;P2;SDS_P1;SDS_P2;PMS_P1;PMS_P2;Temp;Humidity;BMP_temperature;BMP_pressure;BME280_temperature;BME280_humidity;BME280_pressure;Samples;Min_cycle;Max_cycle;Signal;HPM_P1;HPM_P2
2022/05/16 00:02:01;;;;;;;;;;;16.70;64.90;;;;;;4886077;28;20260;-74
2022/05/16 00:04:31;;;;;;;;;;;16.60;66.00;;;;;;4894126;28;20186;-74
2022/05/16 00:06:56;;;;;;;;;;;16.50;66.10;;;;;;4899729;28;20220;-74
2022/05/16 00:09:23;;;;;;;;;;;16.50;65.80;;;;;;4903455;28;20095;-74
2022/05/16 00:11:49;;;;;;;;;;;16.50;65.60;;;;;;4908493;28;20220;-74
2022/05/16 00:14:14;;;;;;;;;;;16.50;65.80;;;;;;4901217;28;20176;-74
2022/05/16 00:16:45;;;;;;;;;;;16.50;65.90;;;;;;4880015;28;20292;-73
2022/05/16 00:19:11;;;;;;;;;;;16.50;65.20;;;;;;4895612;28;20303;-74
2022/05/16 00:21:37;;;;;;;;;;;16.50;65.80;;;;;;4894922;28;20170;-74
2022/05/16 00:24:03;;;;;;;;;;;16.50;66.00;;;;;;4884180;28;20069;-74
2022/05/16 00:26:30;;;;;;;;;;;16.40;65.90;;;;;;4890202;28;20084;-75
2022/05/16 00:28:56;;;;;;;;;;;16.40;66.20;;;;;;4893035;28;20375;-74
2022/05/16 00:31:22;;;;;;;;;;;16.30;66.20;;;;;;4895150;28;20095;-74
2022/05/16 00:33:48;;;;;;;;;;;16.30;66.50;;;;;;4899894;28;20092;-74
2022/05/16 00:36:15;;;;;;;;;;;16.30;66.60;;;;;;4906974;28;20396;-74
2022/05/16 00:38:41;;;;;;;;;;;16.20;66.80;;;;;;4875971;28;20191;-74
2022/05/16 00:41:07;;;;;;;;;;;16.30;66.70;;;;;;4887525;28;20342;-74
2022/05/16 00:43:45;;;;;;;;;;;16.30;66.60;;;;;;4885651;28;20340;-74
2022/05/16 00:46:11;;;;;;;;;;;16.20;66.60;;;;;;4879611;28;20080;-74
2022/05/16 00:48:37;;;;;;;;;;;16.20;66.90;;;;;;4899859;28;20225;-74
2022/05/16 00:51:09;;;;;;;;;;;16.10;67.20;;;;;;4898050;28;20244;-74
2022/05/16 00:53:35;;;;;;;;;;;16.20;66.70;;;;;;4884824;28;20241;-74
2022/05/16 00:56:01;;;;;;;;;;;16.20;66.70;;;;;;4982048;28;20333;-75
2022/05/16 00:58:26;;;;;;;;;;;16.10;66.90;;;;;;5007066;28;20327;-75
2022/05/16 01:00:52;;;;;;;;;;;16.20;66.80;;;;;;5007339;28;20024;-75
2022/05/16 01:06:03;;;;;;;;;;;16.10;67.40;;;;;;5002019;28;19920;-75
2022/05/16 01:08:31;;;;;;;;;;;16.10;67.40;;;;;;5008839;28;19914;-75
2022/05/16 01:10:58;;;;;;;;;;;16.10;67.50;;;;;;5004680;28;19992;-75
2022/05/16 01:13:24;;;;;;;;;;;16.10;67.60;;;;;;5007477;28;19921;-74
2022/05/16 01:15:50;;;;;;;;;;;16.20;66.90;;;;;;5006641;28;20008;-75
2022/05/16 01:18:17;;;;;;;;;;;16.10;67.30;;;;;;5004988;28;20379;-74
2022/05/16 01:21:01;;;;;;;;;;;16.00;67.40;;;;;;5006935;28;19928;-75
2022/05/16 01:23:28;;;;;;;;;;;16.10;67.20;;;;;;5002693;28;20016;-75
2022/05/16 01:25:53;;;;;;;;;;;15.90;67.50;;;;;;5012283;28;20391;-75
2022/05/16 01:28:20;;;;;;;;;;;15.90;68.20;;;;;;5011112;28;19917;-75
2022/05/16 01:30:49;;;;;;;;;;;15.90;67.40;;;;;;5001984;28;19917;-75
2022/05/16 01:33:16;;;;;;;;;;;16.00;67.70;;;;;;4990125;28;20292;-75
2022/05/16 01:35:42;;;;;;;;;;;15.90;67.30;;;;;;5003731;28;20376;-75
2022/05/16 01:38:21;;;;;;;;;;;16.00;67.30;;;;;;5009504;28;19921;-75
2022/05/16 01:40:48;;;;;;;;;;;16.00;66.80;;;;;;4986982;28;19960;-75
2022/05/16 01:43:13;;;;;;;;;;;16.00;66.90;;;;;;5016440;28;20008;-76
2022/05/16 01:45:43;;;;;;;;;;;16.10;67.00;;;;;;5013273;28;19921;-75
2022/05/16 01:48:09;;;;;;;;;;;16.00;67.00;;;;;;5016237;28;20321;-75
2022/05/16 01:50:35;;;;;;;;;;;16.00;67.00;;;;;;4990310;28;20028;-75
2022/05/16 01:53:00;;;;;;;;;;;16.00;67.10;;;;;;5010755;28;19993;-75
2022/05/16 01:55:26;;;;;;;;;;;16.00;67.10;;;;;;4992461;28;19914;-75
2022/05/16 01:57:51;;;;;;;;;;;16.10;66.90;;;;;;5011217;28;19964;-76
2022/05/16 02:00:17;;;;;;;;;;;16.10;67.30;;;;;;5005626;28;19967;-75
2022/05/16 02:02:44;;;;;;;;;;;16.00;67.00;;;;;;5007405;28;19925;-75
2022/05/16 02:05:11;;;;;;;;;;;16.00;67.30;;;;;;4992209;28;19967;-75
2022/05/16 02:07:37;;;;;;;;;;;15.90;67.70;;;;;;4991888;28;20351;-75
2022/05/16 02:10:03;;;;;;;;;;;15.90;67.50;;;;;;5004324;28;19914;-75
2022/05/16 02:12:28;;;;;;;;;;;15.90;67.60;;;;;;5009763;28;20012;-74
2022/05/16 02:14:54;;;;;;;;;;;15.90;67.40;;;;;;5025656;28;20015;-75
2022/05/16 02:17:19;;;;;;;;;;;15.90;67.90;;;;;;4998352;28;19971;-75
2022/05/16 02:19:44;;;;;;;;;;;15.70;68.00;;;;;;5015384;28;19929;-75
2022/05/16 02:24:54;;;;;;;;;;;15.70;68.40;;;;;;5010212;28;19944;-75
2022/05/16 02:27:19;;;;;;;;;;;15.70;68.90;;;;;;5016955;28;19937;-74
2022/05/16 02:29:45;;;;;;;;;;;15.70;68.10;;;;;;5006442;28;19984;-75
2022/05/16 02:32:11;;;;;;;;;;;15.70;68.40;;;;;;4990569;28;19921;-75
2022/05/16 02:34:37;;;;;;;;;;;15.60;68.70;;;;;;5010662;28;19925;-75
2022/05/16 02:37:04;;;;;;;;;;;15.60;68.40;;;;;;5007921;28;20248;-74
2022/05/16 02:39:29;;;;;;;;;;;15.60;68.80;;;;;;5009474;28;19913;-75
2022/05/16 02:41:55;;;;;;;;;;;15.60;68.50;;;;;;5018962;28;19924;-75
2022/05/16 02:44:21;;;;;;;;;;;15.60;68.40;;;;;;5004755;28;19968;-75
2022/05/16 02:46:47;;;;;;;;;;;15.60;68.60;;;;;;5017939;28;19952;-75
2022/05/16 02:49:13;;;;;;;;;;;15.50;69.30;;;;;;5006716;28;20406;-74
2022/05/16 02:51:38;;;;;;;;;;;15.50;69.10;;;;;;5012555;28;19921;-75
2022/05/16 02:54:04;;;;;;;;;;;15.50;68.70;;;;;;5007147;28;20293;-75
2022/05/16 02:56:29;;;;;;;;;;;15.40;69.00;;;;;;5017945;28;19996;-75
2022/05/16 02:58:55;;;;;;;;;;;15.30;69.20;;;;;;4990024;28;19921;-75
2022/05/16 03:01:20;;;;;;;;;;;15.30;69.50;;;;;;5008389;28;20333;-76
2022/05/16 03:03:46;;;;;;;;;;;15.30;69.30;;;;;;5008033;28;20356;-75
2022/05/16 03:06:12;;;;;;;;;;;15.40;69.80;;;;;;4992140;28;19920;-76
2022/05/16 03:08:37;;;;;;;;;;;15.30;69.80;;;;;;5008055;28;19957;-75
2022/05/16 03:11:04;;;;;;;;;;;15.40;69.60;;;;;;5012841;28;19971;-76
2022/05/16 03:13:29;;;;;;;;;;;15.30;69.60;;;;;;5009499;28;20396;-76
2022/05/16 03:15:55;;;;;;;;;;;15.30;69.60;;;;;;5008611;28;19920;-76
2022/05/16 03:18:22;;;;;;;;;;;15.40;69.40;;;;;;5013964;28;19953;-76
2022/05/16 03:20:49;;;;;;;;;;;15.40;69.40;;;;;;4989632;28;19940;-76
2022/05/16 03:23:15;;;;;;;;;;;15.30;69.30;;;;;;5008543;28;19925;-76
2022/05/16 03:25:40;;;;;;;;;;;15.30;69.30;;;;;;4997084;28;20825;-76
2022/05/16 03:28:06;;;;;;;;;;;15.30;69.50;;;;;;4984646;28;19984;-76
2022/05/16 03:30:31;;;;;;;;;;;15.30;69.50;;;;;;5006357;28;20432;-75
2022/05/16 03:32:57;;;;;;;;;;;15.30;69.60;;;;;;5016020;28;19921;-76
2022/05/16 03:35:23;;;;;;;;;;;15.30;69.70;;;;;;5007219;28;19918;-76
2022/05/16 03:37:48;;;;;;;;;;;15.30;69.40;;;;;;5006137;28;19971;-75
2022/05/16 03:42:58;;;;;;;;;;;15.40;69.10;;;;;;5006575;28;19940;-76
2022/05/16 03:45:24;;;;;;;;;;;15.30;69.30;;;;;;4988392;28;19913;-75
2022/05/16 03:47:49;;;;;;;;;;;15.30;69.30;;;;;;5008740;28;20388;-76
2022/05/16 03:50:15;;;;;;;;;;;15.20;69.50;;;;;;5009014;28;19913;-75
2022/05/16 03:52:41;;;;;;;;;;;15.30;69.50;;;;;;5007703;28;19928;-76
2022/05/16 03:55:08;;;;;;;;;;;15.20;70.20;;;;;;5008401;28;19913;-76
2022/05/16 03:57:33;;;;;;;;;;;15.20;70.00;;;;;;5008603;28;20009;-76
2022/05/16 03:59:59;;;;;;;;;;;15.30;69.90;;;;;;5007475;28;20016;-76
2022/05/16 04:02:24;;;;;;;;;;;15.30;70.50;;;;;;5000558;28;20633;-76
2022/05/16 04:04:50;;;;;;;;;;;15.30;70.50;;;;;;5007524;28;19921;-76
2022/05/16 04:07:15;;;;;;;;;;;15.20;70.20;;;;;;5008571;28;19920;-76
2022/05/16 04:09:40;;;;;;;;;;;15.30;69.80;;;;;;4990107;28;19925;-76
2022/05/16 04:12:06;;;;;;;;;;;15.40;69.70;;;;;;5008322;28;20273;-75
2022/05/16 04:14:32;;;;;;;;;;;15.40;69.90;;;;;;5007079;28;19936;-76
2022/05/16 04:16:58;;;;;;;;;;;15.30;70.10;;;;;;4997698;28;19913;-75
2022/05/16 04:19:24;;;;;;;;;;;15.30;69.50;;;;;;5005625;28;19929;-76
2022/05/16 04:21:50;;;;;;;;;;;15.20;69.80;;;;;;5006048;28;19914;-76
2022/05/16 04:24:15;;;;;;;;;;;15.20;70.20;;;;;;5007083;28;20304;-75
2022/05/16 04:26:42;;;;;;;;;;;15.30;70.00;;;;;;5005065;28;19925;-75
2022/05/16 04:29:07;;;;;;;;;;;15.30;69.90;;;;;;5004139;28;20376;-76
2022/05/16 04:31:33;;;;;;;;;;;15.30;69.90;;;;;;5010311;28;19918;-75
2022/05/16 04:33:58;;;;;;;;;;;15.40;70.10;;;;;;5006982;28;19914;-76
2022/05/16 04:36:24;;;;;;;;;;;15.40;69.50;;;;;;5009332;28;19969;-75
2022/05/16 04:38:49;;;;;;;;;;;15.50;69.40;;;;;;5017115;28;19917;-75
2022/05/16 04:43:59;;;;;;;;;;;15.40;69.70;;;;;;5001559;28;19924;-75
2022/05/16 04:46:24;;;;;;;;;;;15.40;70.20;;;;;;5008759;28;19913;-76
2022/05/16 04:48:50;;;;;;;;;;;15.50;69.70;;;;;;5008050;28;20012;-76
2022/05/16 04:51:16;;;;;;;;;;;15.50;69.40;;;;;;5007013;28;20008;-76
2022/05/16 04:53:41;;;;;;;;;;;15.50;69.60;;;;;;5007387;28;19963;-76
2022/05/16 04:56:07;;;;;;;;;;;15.60;69.30;;;;;;5006247;28;19928;-76
2022/05/16 04:58:35;;;;;;;;;;;15.80;68.60;;;;;;5005405;28;19953;-74
2022/05/16 05:01:01;;;;;;;;;;;15.80;68.80;;;;;;5003642;28;19936;-79
2022/05/16 05:03:27;;;;;;;;;;;15.80;68.60;;;;;;4988702;28;19917;-75
2022/05/16 05:05:53;;;;;;;;;;;15.80;69.00;;;;;;5008426;28;19914;-77
2022/05/16 05:08:18;;;;;;;;;;;16.10;68.80;;;;;;4998420;28;19925;-76
2022/05/16 05:16:14;;;;;;;;;;;16.50;68.00;;;;;;5006593;28;20303;-76
2022/05/16 05:18:40;;;;;;;;;;;16.50;67.40;;;;;;5007916;28;20288;-76
2022/05/16 05:21:06;;;;;;;;;;;16.50;67.50;;;;;;5009072;28;19921;-76
2022/05/16 05:23:33;;;;;;;;;;;16.50;67.20;;;;;;5014478;28;19937;-77
2022/05/16 05:25:59;;;;;;;;;;;16.60;67.00;;;;;;4991820;28;19921;-77
2022/05/16 05:28:24;;;;;;;;;;;16.60;66.90;;;;;;5026101;28;19913;-77
2022/05/16 05:30:50;;;;;;;;;;;16.60;66.80;;;;;;5017805;28;19976;-77
2022/05/16 05:33:15;;;;;;;;;;;16.80;66.50;;;;;;5008742;28;19960;-78
2022/05/16 05:35:41;;;;;;;;;;;17.10;65.70;;;;;;5019372;28;19917;-78
2022/05/16 05:38:06;;;;;;;;;;;17.30;65.30;;;;;;5006268;28;19972;-77
2022/05/16 05:40:32;;;;;;;;;;;17.50;65.40;;;;;;5009404;28;20103;-76
2022/05/16 05:43:01;;;;;;;;;;;17.70;64.60;;;;;;5012263;28;19917;-76
2022/05/16 05:45:26;;;;;;;;;;;17.90;64.80;;;;;;5012414;28;20297;-76
2022/05/16 05:47:52;;;;;;;;;;;18.00;64.40;;;;;;5027035;28;19916;-76
2022/05/16 05:50:18;;;;;;;;;;;18.10;63.70;;;;;;5011986;28;20377;-76
2022/05/16 05:52:43;;;;;;;;;;;18.20;63.10;;;;;;5023214;28;19917;-76
2022/05/16 05:55:09;;;;;;;;;;;18.20;63.20;;;;;;5020070;28;19913;-77
2022/05/16 05:57:35;;;;;;;;;;;18.40;63.90;;;;;;5021630;28;20264;-76
2022/05/16 06:00:00;;;;;;;;;;;18.50;62.70;;;;;;4992583;28;19913;-76
2022/05/16 06:02:26;;;;;;;;;;;18.30;62.10;;;;;;5012704;28;19918;-76
2022/05/16 06:04:52;;;;;;;;;;;18.10;63.00;;;;;;5011841;28;20428;-77
2022/05/16 06:07:17;;;;;;;;;;;18.00;63.60;;;;;;5002881;28;20268;-76
2022/05/16 06:09:43;;;;;;;;;;;17.80;63.60;;;;;;5014338;28;19920;-76
2022/05/16 06:12:09;;;;;;;;;;;17.80;64.30;;;;;;5024940;28;19956;-76
2022/05/16 06:14:34;;;;;;;;;;;17.80;65.20;;;;;;5015950;28;20004;-77
2022/05/16 06:17:00;;;;;;;;;;;17.90;64.90;;;;;;5028911;28;20392;-77
2022/05/16 06:19:26;;;;;;;;;;;18.00;64.90;;;;;;5012438;28;19925;-79
2022/05/16 06:21:51;;;;;;;;;;;18.10;64.20;;;;;;5002064;28;20292;-79
2022/05/16 06:27:02;;;;;;;;;;;18.20;63.60;;;;;;5014206;28;19917;-78
2022/05/16 06:29:28;;;;;;;;;;;18.20;64.10;;;;;;4988447;28;19922;-77
2022/05/16 06:31:53;;;;;;;;;;;18.20;64.40;;;;;;5011962;28;20273;-78
2022/05/16 06:34:19;;;;;;;;;;;18.20;64.10;;;;;;5015131;28;19914;-77
2022/05/16 06:36:45;;;;;;;;;;;18.20;64.70;;;;;;5012869;28;20005;-78
2022/05/16 06:39:10;;;;;;;;;;;18.30;64.60;;;;;;4997192;28;19924;-78
2022/05/16 06:41:36;;;;;;;;;;;18.40;64.40;;;;;;5011391;28;20008;-78
2022/05/16 06:44:02;;;;;;;;;;;18.50;64.70;;;;;;5009521;28;20277;-78
2022/05/16 06:46:27;;;;;;;;;;;18.50;64.90;;;;;;5008874;28;19956;-78
2022/05/16 06:48:53;;;;;;;;;;;18.50;65.50;;;;;;5007854;28;19963;-78
2022/05/16 06:51:18;;;;;;;;;;;18.50;65.80;;;;;;5011818;28;19932;-78
2022/05/16 06:53:44;;;;;;;;;;;18.50;66.40;;;;;;5011500;28;19953;-78
2022/05/16 06:56:10;;;;;;;;;;;18.50;66.60;;;;;;4995114;28;19910;-78
2022/05/16 06:58:35;;;;;;;;;;;18.60;66.90;;;;;;5011532;28;19918;-79
2022/05/16 07:01:01;;;;;;;;;;;18.70;66.40;;;;;;5026481;28;20012;-78
2022/05/16 07:03:26;;;;;;;;;;;18.70;66.10;;;;;;4996733;28;20307;-78
2022/05/16 07:05:52;;;;;;;;;;;18.80;66.30;;;;;;5015850;28;19924;-78
2022/05/16 07:08:19;;;;;;;;;;;18.60;66.50;;;;;;5006149;28;19922;-78
2022/05/16 07:10:47;;;;;;;;;;;18.60;67.40;;;;;;5014282;28;19910;-78
2022/05/16 07:13:13;;;;;;;;;;;18.80;68.30;;;;;;5012091;28;19921;-77
2022/05/16 07:15:38;;;;;;;;;;;18.90;68.40;;;;;;5017998;28;19913;-78
2022/05/16 07:18:04;;;;;;;;;;;18.90;68.30;;;;;;5008580;28;19944;-78
2022/05/16 07:20:29;;;;;;;;;;;19.00;68.40;;;;;;5008448;28;19952;-78
2022/05/16 07:22:58;;;;;;;;;;;19.00;67.20;;;;;;5008475;28;20039;-78
2022/05/16 07:25:25;;;;;;;;;;;19.10;66.00;;;;;;5005890;28;19920;-77
2022/05/16 07:27:56;;;;;;;;;;;19.20;64.50;;;;;;5004119;28;19917;-76
2022/05/16 07:30:25;;;;;;;;;;;19.30;64.60;;;;;;5007767;28;20013;-78
2022/05/16 07:32:50;;;;;;;;;;;19.30;62.90;;;;;;4996225;28;19922;-80
2022/05/16 07:35:20;;;;;;;;;;;19.30;62.60;;;;;;4997233;28;20339;-76
2022/05/16 07:37:46;;;;;;;;;;;19.40;63.00;;;;;;5009716;28;19932;-76
2022/05/16 07:40:11;;;;;;;;;;;19.60;62.50;;;;;;5009753;28;20442;-75
2022/05/16 07:42:37;;;;;;;;;;;19.70;61.20;;;;;;5009477;28;19916;-75
2022/05/16 07:45:04;;;;;;;;;;;19.70;61.40;;;;;;5010939;28;20391;-75
2022/05/16 07:47:30;;;;;;;;;;;19.80;61.10;;;;;;5010829;28;19937;-76
2022/05/16 07:49:56;;;;;;;;;;;19.80;61.40;;;;;;5017798;28;19913;-75
2022/05/16 07:52:22;;;;;;;;;;;19.90;62.50;;;;;;5009694;28;19914;-76
2022/05/16 07:54:48;;;;;;;;;;;20.00;62.50;;;;;;5015457;28;19925;-76
2022/05/16 07:57:13;;;;;;;;;;;20.00;63.70;;;;;;5008348;28;19938;-76
2022/05/16 07:59:41;;;;;;;;;;;20.10;62.20;;;;;;5007444;28;19925;-76
2022/05/16 08:02:06;;;;;;;;;;;20.10;62.50;;;;;;5009458;28;20459;-76
2022/05/16 08:04:32;;;;;;;;;;;20.10;62.60;;;;;;5010302;28;20008;-77
2022/05/16 08:06:57;;;;;;;;;;;20.20;64.00;;;;;;5008954;28;19921;-76
2022/05/16 08:12:07;;;;;;;;;;;20.50;63.40;;;;;;5003957;28;20014;-77
2022/05/16 08:14:33;;;;;;;;;;;20.60;60.30;;;;;;4997791;28;20391;-77
2022/05/16 08:16:59;;;;;;;;;;;20.60;60.10;;;;;;5006747;28;19921;-77
2022/05/16 08:19:25;;;;;;;;;;;20.60;60.20;;;;;;5003109;28;19914;-77
2022/05/16 08:21:50;;;;;;;;;;;20.70;59.20;;;;;;5006259;28;20059;-77
2022/05/16 08:24:16;;;;;;;;;;;20.70;58.70;;;;;;4992391;28;19937;-75
2022/05/16 08:26:41;;;;;;;;;;;20.70;58.10;;;;;;4988100;28;19913;-75
2022/05/16 08:29:07;;;;;;;;;;;20.90;57.40;;;;;;4996673;28;19933;-76
2022/05/16 08:31:32;;;;;;;;;;;21.00;56.70;;;;;;4991066;28;19921;-77
2022/05/16 08:33:58;;;;;;;;;;;21.10;56.20;;;;;;4991214;28;19909;-76
2022/05/16 08:41:54;;;;;;;;;;;21.40;54.20;;;;;;5015641;28;19961;-77
2022/05/16 08:44:23;;;;;;;;;;;21.50;55.50;;;;;;5012636;28;19913;-78
2022/05/16 08:46:58;;;;;;;;;;;21.60;54.70;;;;;;5014944;28;19913;-77
2022/05/16 08:49:23;;;;;;;;;;;21.80;54.50;;;;;;5009001;28;19948;-78
2022/05/16 08:51:52;;;;;;;;;;;21.80;54.40;;;;;;4992405;28;20380;-78
2022/05/16 08:54:29;;;;;;;;;;;21.90;54.30;;;;;;5009896;28;19909;-76
2022/05/16 08:56:58;;;;;;;;;;;22.00;53.60;;;;;;5016834;28;19956;-77
2022/05/16 08:59:25;;;;;;;;;;;22.00;53.90;;;;;;5004885;28;19914;-78
2022/05/16 09:01:56;;;;;;;;;;;22.20;53.30;;;;;;5009311;28;20395;-77
2022/05/16 09:04:26;;;;;;;;;;;22.30;53.20;;;;;;5010477;28;19922;-78
2022/05/16 09:06:54;;;;;;;;;;;22.20;53.10;;;;;;5006377;28;19996;-77
2022/05/16 09:09:22;;;;;;;;;;;22.20;54.30;;;;;;5003277;28;19922;-78
2022/05/16 09:12:03;;;;;;;;;;;22.30;53.30;;;;;;4991390;28;20004;-78
2022/05/16 09:14:40;;;;;;;;;;;22.40;53.70;;;;;;5011433;28;19935;-77
2022/05/16 09:17:19;;;;;;;;;;;22.50;53.70;;;;;;5030880;28;19910;-77
2022/05/16 09:19:56;;;;;;;;;;;22.60;53.20;;;;;;5012739;28;19918;-76
2022/05/16 09:22:21;;;;;;;;;;;22.60;52.90;;;;;;5021751;28;19924;-77
2022/05/16 09:25:13;;;;;;;;;;;22.60;53.60;;;;;;4996980;28;19917;-78
2022/05/16 09:30:24;;;;;;;;;;;22.50;54.60;;;;;;5010199;28;20004;-77
2022/05/16 09:32:53;;;;;;;;;;;22.60;55.60;;;;;;5010846;28;20432;-77
2022/05/16 09:35:29;;;;;;;;;;;22.60;56.30;;;;;;4992443;28;19924;-78
2022/05/16 09:37:55;;;;;;;;;;;22.50;55.40;;;;;;5009125;28;20020;-78
2022/05/16 09:40:24;;;;;;;;;;;22.50;55.50;;;;;;5007190;28;19917;-76
2022/05/16 09:42:50;;;;;;;;;;;22.30;55.80;;;;;;5014014;28;20012;-78
2022/05/16 09:45:22;;;;;;;;;;;22.20;55.60;;;;;;5002280;28;20012;-78
2022/05/16 09:47:47;;;;;;;;;;;22.10;56.40;;;;;;4999682;28;19913;-79
2022/05/16 09:50:20;;;;;;;;;;;22.10;57.00;;;;;;5003730;28;19932;-78
2022/05/16 09:52:49;;;;;;;;;;;22.00;57.00;;;;;;4981206;28;19917;-80
2022/05/16 09:55:23;;;;;;;;;;;22.00;57.20;;;;;;5011753;28;19953;-79
2022/05/16 09:58:07;;;;;;;;;;;22.00;57.30;;;;;;5009597;28;19956;-77
2022/05/16 10:00:40;;;;;;;;;;;22.10;56.90;;;;;;4997803;28;19923;-77
2022/05/16 10:03:23;;;;;;;;;;;22.10;57.10;;;;;;5026764;28;19917;-78
2022/05/16 10:05:51;;;;;;;;;;;22.20;57.40;;;;;;4994982;28;19960;-79
2022/05/16 10:08:35;;;;;;;;;;;22.20;56.30;;;;;;5021415;28;19916;-80
2022/05/16 10:11:02;;;;;;;;;;;22.20;56.70;;;;;;5004308;28;19936;-79
2022/05/16 10:13:28;;;;;;;;;;;22.50;57.10;;;;;;5024626;28;19924;-77
2022/05/16 10:15:55;;;;;;;;;;;22.60;55.60;;;;;;5000296;28;19918;-79
2022/05/16 10:18:22;;;;;;;;;;;22.80;55.90;;;;;;5018158;28;19924;-78
2022/05/16 10:21:08;;;;;;;;;;;22.90;55.70;;;;;;5018085;28;19922;-78
2022/05/16 10:23:35;;;;;;;;;;;23.00;55.80;;;;;;5011122;28;20396;-77
2022/05/16 10:26:06;;;;;;;;;;;23.10;55.40;;;;;;5013023;28;20008;-79
2022/05/16 10:28:35;;;;;;;;;;;23.40;54.60;;;;;;5014018;28;19914;-79
2022/05/16 10:33:48;;;;;;;;;;;23.30;54.20;;;;;;5014403;28;19921;-80
2022/05/16 10:36:23;;;;;;;;;;;23.30;54.30;;;;;;5006276;28;19971;-79
2022/05/16 10:39:03;;;;;;;;;;;23.40;53.90;;;;;;5021771;28;19932;-80
2022/05/16 10:41:43;;;;;;;;;;;23.60;53.90;;;;;;5016582;28;19992;-81
2022/05/16 10:44:19;;;;;;;;;;;23.60;54.00;;;;;;5011605;28;19963;-77
2022/05/16 10:46:50;;;;;;;;;;;23.90;54.20;;;;;;5014125;28;19914;-79
2022/05/16 10:49:19;;;;;;;;;;;24.20;53.40;;;;;;5022530;28;19997;-80
2022/05/16 10:51:45;;;;;;;;;;;24.40;52.20;;;;;;5019365;28;19925;-78
2022/05/16 10:54:15;;;;;;;;;;;24.50;52.50;;;;;;5002825;28;20316;-77
2022/05/16 10:56:49;;;;;;;;;;;24.50;51.80;;;;;;4999848;28;19924;-77
2022/05/16 10:59:23;;;;;;;;;;;24.50;51.50;;;;;;5012198;28;19922;-78
2022/05/16 11:01:52;;;;;;;;;;;24.50;52.60;;;;;;4997853;28;19909;-79
2022/05/16 11:04:36;;;;;;;;;;;24.50;52.90;;;;;;5017141;28;19913;-79
2022/05/16 11:07:07;;;;;;;;;;;24.50;53.20;;;;;;5002891;28;19921;-79
2022/05/16 11:09:50;;;;;;;;;;;24.60;53.30;;;;;;5007181;28;20395;-78
2022/05/16 11:12:22;;;;;;;;;;;24.80;53.70;;;;;;5013751;28;19924;-79
2022/05/16 11:14:50;;;;;;;;;;;24.80;52.50;;;;;;5001911;28;19922;-77
2022/05/16 11:17:28;;;;;;;;;;;24.80;52.50;;;;;;5017719;28;20496;-78
2022/05/16 11:19:54;;;;;;;;;;;25.00;52.40;;;;;;4989189;28;19914;-77
2022/05/16 11:22:30;;;;;;;;;;;25.10;51.90;;;;;;5016723;28;19919;-77
2022/05/16 11:24:59;;;;;;;;;;;25.00;51.70;;;;;;5015525;28;19925;-78
2022/05/16 11:27:43;;;;;;;;;;;24.80;52.30;;;;;;5011367;28;19914;-77
2022/05/16 11:30:08;;;;;;;;;;;24.90;53.20;;;;;;4988741;28;19921;-77
2022/05/16 11:32:40;;;;;;;;;;;25.00;52.00;;;;;;5007064;28;20305;-77
2022/05/16 11:35:09;;;;;;;;;;;25.00;50.40;;;;;;4992211;28;20075;-77
2022/05/16 11:37:51;;;;;;;;;;;25.20;50.90;;;;;;5021133;28;19917;-77
2022/05/16 11:40:27;;;;;;;;;;;25.20;49.20;;;;;;5026993;28;19913;-77
2022/05/16 11:42:59;;;;;;;;;;;25.10;49.60;;;;;;5028283;28;19926;-77
2022/05/16 11:45:31;;;;;;;;;;;25.20;48.50;;;;;;5010301;28;19913;-79
2022/05/16 11:48:08;;;;;;;;;;;25.40;48.60;;;;;;5012436;28;19993;-78
2022/05/16 11:50:39;;;;;;;;;;;25.40;48.00;;;;;;5008723;28;19924;-78
2022/05/16 11:53:22;;;;;;;;;;;25.50;48.70;;;;;;5004088;28;19932;-76
2022/05/16 12:01:45;;;;;;;;;;;25.70;48.80;;;;;;5012337;28;19921;-76
2022/05/16 12:04:13;;;;;;;;;;;25.70;49.00;;;;;;4987370;28;20319;-77
2022/05/16 12:06:48;;;;;;;;;;;25.80;48.70;;;;;;5012090;28;19961;-77
2022/05/16 12:09:23;;;;;;;;;;;25.90;47.80;;;;;;5010491;28;21259;-78
2022/05/16 12:11:53;;;;;;;;;;;25.80;47.80;;;;;;5009339;28;19918;-79
2022/05/16 12:14:33;;;;;;;;;;;25.90;48.90;;;;;;5011990;28;20028;-79
2022/05/16 12:17:00;;;;;;;;;;;26.00;47.40;;;;;;5010278;28;19952;-83
2022/05/16 12:19:29;;;;;;;;;;;26.00;47.30;;;;;;5014159;28;19976;-78
2022/05/16 12:22:04;;;;;;;;;;;25.80;48.00;;;;;;5010586;28;19914;-79
2022/05/16 12:24:31;;;;;;;;;;;25.90;48.90;;;;;;5003611;28;19924;-79
2022/05/16 12:27:02;;;;;;;;;;;25.90;48.00;;;;;;4999842;28;19913;-80
2022/05/16 12:29:44;;;;;;;;;;;26.00;48.50;;;;;;5011586;28;20321;-81
2022/05/16 12:32:20;;;;;;;;;;;26.00;47.90;;;;;;5009576;28;19918;-84
2022/05/16 12:34:46;;;;;;;;;;;26.00;47.90;;;;;;4988643;28;19967;-83
2022/05/16 12:37:13;;;;;;;;;;;26.20;48.20;;;;;;5004461;28;19914;-83
2022/05/16 12:39:41;;;;;;;;;;;26.10;48.90;;;;;;4994910;28;19936;-83
2022/05/16 12:42:18;;;;;;;;;;;26.30;46.90;;;;;;5009621;28;19921;-85
2022/05/16 12:44:59;;;;;;;;;;;26.30;46.70;;;;;;5010413;28;19927;-84
2022/05/16 12:47:37;;;;;;;;;;;26.10;47.90;;;;;;5016356;28;19921;-85
2022/05/16 12:50:03;;;;;;;;;;;25.90;47.90;;;;;;5005710;28;19917;-82
2022/05/16 12:52:31;;;;;;;;;;;25.60;48.80;;;;;;5001170;28;19925;-82
2022/05/16 12:55:09;;;;;;;;;;;25.60;49.00;;;;;;4998231;28;19913;-82
2022/05/16 12:57:44;;;;;;;;;;;25.60;49.50;;;;;;4954684;28;20459;-81
2022/05/16 13:00:13;;;;;;;;;;;25.40;50.50;;;;;;4952336;28;20159;-79
2022/05/16 13:02:39;;;;;;;;;;;25.50;50.40;;;;;;4974136;28;20087;-79
2022/05/16 13:05:07;;;;;;;;;;;25.60;50.80;;;;;;4948199;28;20714;-79
2022/05/16 13:07:39;;;;;;;;;;;25.50;51.60;;;;;;4964448;28;19922;-79
2022/05/16 13:10:12;;;;;;;;;;;25.50;51.10;;;;;;4971983;28;19975;-77
2022/05/16 13:12:56;;;;;;;;;;;25.60;50.70;;;;;;4950174;28;20246;-78
2022/05/16 13:15:26;;;;;;;;;;;25.80;50.80;;;;;;4944720;28;20088;-77
2022/05/16 13:17:58;;;;;;;;;;;25.80;51.50;;;;;;4963978;28;19963;-78
2022/05/16 13:20:30;;;;;;;;;;;25.80;50.10;;;;;;4970520;28;20457;-77
2022/05/16 13:22:57;;;;;;;;;;;25.80;50.40;;;;;;4966866;28;20087;-77
2022/05/16 13:25:23;;;;;;;;;;;25.60;51.40;;;;;;4944833;28;19940;-77
2022/05/16 13:30:35;;;;;;;;;;;25.40;51.80;;;;;;4968898;28;19999;-78
2022/05/16 13:33:00;;;;;;;;;;;25.40;53.10;;;;;;4957581;28;19926;-77
2022/05/16 13:35:28;;;;;;;;;;;25.20;54.50;;;;;;4956830;28;19910;-79
2022/05/16 13:37:56;;;;;;;;;;;25.00;55.20;;;;;;4953276;28;20105;-76
2022/05/16 13:40:22;;;;;;;;;;;24.90;56.00;;;;;;4956849;28;20082;-77
2022/05/16 13:42:48;;;;;;;;;;;24.60;57.40;;;;;;4987945;28;19941;-79
2022/05/16 13:45:13;;;;;;;;;;;24.30;58.50;;;;;;4969120;28;20077;-80
2022/05/16 13:47:40;;;;;;;;;;;24.30;59.40;;;;;;4957323;28;20278;-79
2022/05/16 13:50:38;;;;;;;;;;;24.00;60.60;;;;;;4968438;28;19916;-82
2022/05/16 13:53:04;;;;;;;;;;;23.80;60.70;;;;;;4940112;28;19980;-80
2022/05/16 13:55:30;;;;;;;;;;;23.60;61.80;;;;;;4968855;28;20123;-81
2022/05/16 13:57:56;;;;;;;;;;;23.30;63.10;;;;;;4968912;28;20547;-80
2022/05/16 14:00:37;;;;;;;;;;;23.30;62.90;;;;;;4958252;28;19975;-80
2022/05/16 14:03:22;;;;;;;;;;;23.10;63.50;;;;;;4968249;28;20372;-80
2022/05/16 14:05:48;;;;;;;;;;;22.90;64.50;;;;;;4989132;28;20011;-80
2022/05/16 14:08:32;;;;;;;;;;;22.60;65.30;;;;;;5004031;28;19983;-79
2022/05/16 14:10:57;;;;;;;;;;;22.50;66.00;;;;;;4989267;28;19913;-79
2022/05/16 14:13:25;;;;;;;;;;;22.60;66.90;;;;;;4959925;28;19918;-83
2022/05/16 14:15:55;;;;;;;;;;;22.30;68.50;;;;;;4933871;28;19910;-79
2022/05/16 14:18:35;;;;;;;;;;;22.10;71.20;;;;;;4960748;28;20258;-78
2022/05/16 14:21:03;;;;;;;;;;;21.90;72.90;;;;;;4976723;28;20363;-82
2022/05/16 14:23:33;;;;;;;;;;;21.80;73.50;;;;;;4974629;28;19975;-80
2022/05/16 14:26:16;;;;;;;;;;;21.80;75.70;;;;;;4970447;28;19935;-80
2022/05/16 14:28:44;;;;;;;;;;;21.70;74.80;;;;;;4964949;28;20699;-79
2022/05/16 14:31:22;;;;;;;;;;;21.50;77.60;;;;;;4941453;28;19981;-79
2022/05/16 14:34:00;;;;;;;;;;;21.10;79.50;;;;;;4924653;28;19920;-79
2022/05/16 14:36:30;;;;;;;;;;;20.60;81.60;;;;;;4945944;28;20448;-79
2022/05/16 14:39:02;;;;;;;;;;;20.40;83.00;;;;;;4965774;28;19909;-78
2022/05/16 14:41:28;;;;;;;;;;;20.30;83.50;;;;;;4967569;28;19913;-77
2022/05/16 14:44:04;;;;;;;;;;;20.20;84.30;;;;;;4941505;28;20344;-79
2022/05/16 14:46:42;;;;;;;;;;;20.10;84.80;;;;;;4968953;28;20322;-83
2022/05/16 14:49:08;;;;;;;;;;;20.00;84.50;;;;;;4941691;28;20265;-81
2022/05/16 14:51:34;;;;;;;;;;;19.90;84.80;;;;;;4948097;28;20724;-79
2022/05/16 14:54:00;;;;;;;;;;;19.90;85.50;;;;;;4964160;28;19913;-78
2022/05/16 14:56:31;;;;;;;;;;;19.80;85.40;;;;;;4962355;28;20372;-78
2022/05/16 14:58:57;;;;;;;;;;;19.70;85.90;;;;;;4974785;28;19910;-80
2022/05/16 15:04:07;;;;;;;;;;;19.60;86.40;;;;;;4988190;28;20268;-81
2022/05/16 15:06:38;;;;;;;;;;;19.40;87.50;;;;;;4974939;28;20586;-82
2022/05/16 15:09:11;;;;;;;;;;;19.30;88.30;;;;;;4970558;28;20139;-81